Time;durP1;ratioP1;P1;durP2;ratioP2;P2;SDS_P1;SDS_P2;PMS_P1;PMS_P2;Temp;Humidity;BMP_temperature;BMP_pressure;BME280_temperature;BME280_humidity;BME280_pressure;Samples;Min_cycle;Max_cycle;Signal;HPM_P1;HPM_P2
2023/03/17 00:01:02;;;;;;;;;14.33;11.00;;;;;13.67;89.10;100409.50;5034856;28;46550;-75
2023/03/17 00:03:28;;;;;;;;;13.33;9.00;;;;;13.60;89.02;100406.91;5036979;28;45530;-75
2023/03/17 00:05:55;;;;;;;;;11.33;10.33;;;;;13.58;89.05;100411.34;5034377;28;45436;-74
2023/03/17 00:08:23;;;;;;;;;12.33;10.00;;;;;13.52;88.90;100399.88;5037264;28;45635;-75
2023/03/17 00:10:49;;;;;;;;;10.67;10.67;;;;;13.50;89.36;100415.81;5020431;28;47270;-76
2023/03/17 00:13:16;;;;;;;;;10.50;10.00;;;;;13.46;89.68;100416.72;5034583;28;45248;-76
2023/03/17 00:15:42;;;;;;;;;9.00;8.33;;;;;13.45;90.18;100417.63;5020153;28;45307;-74
2023/03/17 00:18:16;;;;;;;;;11.00;10.00;;;;;13.46;90.33;100410.53;5035310;28;45676;-76
2023/03/17 00:20:42;;;;;;;;;8.33;5.67;;;;;13.45;90.27;100420.28;5036005;28;46410;-75
2023/03/17 00:23:14;;;;;;;;;7.00;7.00;;;;;13.46;91.06;100421.16;5026638;28;45563;-75
2023/03/17 00:25:42;;;;;;;;;5.00;5.00;;;;;13.46;90.82;100426.44;5010161;28;45472;-76
2023/03/17 00:30:42;;;;;;;;;6.67;6.67;;;;;13.38;90.92;100415.91;5030775;28;45897;-76
2023/03/17 00:33:09;;;;;;;;;10.33;6.67;;;;;13.35;90.65;100413.28;5034138;28;45440;-76
2023/03/17 00:35:34;;;;;;;;;6.33;6.33;;;;;13.28;90.92;100411.56;5018419;28;45388;-76
2023/03/17 00:38:00;;;;;;;;;6.00;6.00;;;;;13.27;91.39;100412.47;5015668;28;63952;-75
2023/03/17 00:40:31;;;;;;;;;9.00;7.67;;;;;13.26;91.67;100423.94;5028446;28;70575;-76
2023/03/17 00:43:01;;;;;;;;;6.00;6.00;;;;;13.24;91.75;100428.38;5029441;28;45297;-75
2023/03/17 00:45:27;;;;;;;;;4.00;4.00;;;;;13.21;92.00;100431.00;5035216;28;45421;-76
2023/03/17 00:47:56;;;;;;;;;8.67;8.33;;;;;13.24;92.42;100431.91;5034955;28;45456;-75
2023/03/17 00:50:26;;;;;;;;;13.00;8.33;;;;;13.28;92.56;100430.13;5013567;28;46274;-75
2023/03/17 00:52:53;;;;;;;;;6.33;5.33;;;;;13.31;93.06;100424.78;5017200;28;45667;-75
2023/03/17 00:55:20;;;;;;;;;8.33;7.00;;;;;13.32;93.21;100422.16;5011958;28;45322;-75
2023/03/17 00:57:46;;;;;;;;;10.33;8.33;;;;;13.35;93.01;100415.91;5031377;28;45536;-75
2023/03/17 01:00:19;;;;;;;;;7.33;6.00;;;;;13.39;93.47;100419.44;5033995;28;47086;-75
2023/03/17 01:02:46;;;;;;;;;8.33;6.67;;;;;13.39;93.50;100412.38;5036101;28;45301;-75
2023/03/17 01:05:12;;;;;;;;;6.00;6.00;;;;;13.44;93.66;100415.88;5029254;28;45362;-75
2023/03/17 01:07:39;;;;;;;;;7.67;6.00;;;;;13.47;93.74;100414.94;5030917;28;45451;-76
2023/03/17 01:10:16;;;;;;;;;10.00;7.00;;;;;13.46;93.31;100414.06;5018550;28;46297;-75
2023/03/17 01:12:41;;;;;;;;;8.33;6.00;;;;;13.48;94.14;100430.00;5036134;28;45303;-76
2023/03/17 01:15:07;;;;;;;;;7.00;6.33;;;;;13.48;94.16;100419.38;5033770;28;45391;-76
2023/03/17 01:17:33;;;;;;;;;7.33;7.33;;;;;13.47;94.12;100420.25;5037071;28;45653;-75
2023/03/17 01:19:58;;;;;;;;;4.67;4.67;;;;;13.46;94.18;100418.50;5028083;28;70080;-76
2023/03/17 01:22:24;;;;;;;;;11.33;7.00;;;;;13.47;94.26;100421.13;5035757;28;70276;-76
2023/03/17 01:24:50;;;;;;;;;11.67;7.00;;;;;13.48;94.27;100420.25;5035541;28;45493;-76
2023/03/17 01:27:17;;;;;;;;;10.67;6.00;;;;;13.52;94.06;100423.75;5028776;28;46701;-75
2023/03/17 01:29:42;;;;;;;;;11.33;7.67;;;;;13.55;93.82;100421.09;5035970;28;48386;-75
2023/03/17 01:32:08;;;;;;;;;10.00;8.00;;;;;13.58;93.21;100427.25;5033206;28;45442;-75
2023/03/17 01:34:33;;;;;;;;;10.00;5.67;;;;;13.60;93.73;100414.84;5035497;28;45803;-76
2023/03/17 01:36:59;;;;;;;;;7.00;7.00;;;;;13.61;93.60;100421.03;5037197;28;45536;-75
2023/03/17 01:39:26;;;;;;;;;6.67;6.67;;;;;13.61;94.31;100419.25;5035372;28;69033;-75
2023/03/17 01:41:55;;;;;;;;;6.67;5.67;;;;;13.59;93.80;100414.88;5032613;28;45519;-77
2023/03/17 01:44:21;;;;;;;;;8.33;6.67;;;;;13.61;93.73;100413.06;5019399;28;45405;-75
2023/03/17 01:46:46;;;;;;;;;5.00;5.00;;;;;13.58;93.88;100407.78;5036343;28;45554;-75
2023/03/17 01:49:29;;;;;;;;;7.00;7.00;;;;;13.57;94.33;100409.56;5033747;28;56121;-77
2023/03/17 01:52:00;;;;;;;;;6.67;6.67;;;;;13.58;94.17;100416.66;5028072;28;45596;-77
2023/03/17 01:54:45;;;;;;;;;10.33;5.67;;;;;13.56;94.21;100417.53;5026813;28;45516;-75
2023/03/17 01:57:22;;;;;;;;;10.00;10.00;;;;;13.54;93.99;100414.03;5011191;28;45405;-75
2023/03/17 02:00:18;;;;;;;;;7.00;6.00;;;;;13.50;94.50;100406.97;5035331;28;47605;-77
2023/03/17 02:02:47;;;;;;;;;6.00;6.00;;;;;13.47;95.08;100407.00;5036399;28;45268;-75
2023/03/17 02:05:15;;;;;;;;;6.67;5.33;;;;;13.48;95.20;100414.06;5026056;28;45344;-76
2023/03/17 02:07:41;;;;;;;;;9.67;5.67;;;;;13.47;94.73;100404.34;5014505;28;45576;-76
2023/03/17 02:10:07;;;;;;;;;8.67;7.33;;;;;13.46;95.04;100406.13;5033595;28;46353;-76
2023/03/17 02:12:34;;;;;;;;;8.67;6.67;;;;;13.45;94.88;100403.47;5018546;28;47079;-75
2023/03/17 02:14:59;;;;;;;;;7.00;5.33;;;;;13.42;95.49;100404.38;5012192;28;45837;-76
2023/03/17 02:17:26;;;;;;;;;6.00;6.00;;;;;13.40;95.41;100406.16;5028850;28;65850;-75
2023/03/17 02:19:52;;;;;;;;;9.33;5.67;;;;;13.38;95.87;100421.22;5031461;28;46823;-75
2023/03/17 02:22:18;;;;;;;;;8.33;8.33;;;;;13.37;95.88;100416.81;5033711;28;45574;-75
2023/03/17 02:24:50;;;;;;;;;9.67;7.00;;;;;13.33;96.11;100407.09;5029671;28;45392;-75
2023/03/17 02:27:33;;;;;;;;;10.00;10.00;;;;;13.32;96.22;100408.00;5014512;28;45386;-75
2023/03/17 02:29:59;;;;;;;;;10.00;10.00;;;;;13.26;96.04;100394.75;5017511;28;45916;-75
2023/03/17 02:32:24;;;;;;;;;11.75;10.75;;;;;13.26;96.40;100394.75;5030533;28;45253;-75
2023/03/17 02:34:50;;;;;;;;;11.00;9.00;;;;;13.24;96.78;100399.22;5026401;28;58648;-77
2023/03/17 02:37:17;;;;;;;;;7.00;7.00;;;;;13.20;96.97;100387.69;5036442;28;45671;-75
2023/03/17 02:39:42;;;;;;;;;5.67;5.67;;;;;13.19;96.92;100395.69;5017089;28;46429;-75
2023/03/17 02:42:08;;;;;;;;;10.00;10.00;;;;;13.17;97.17;100401.00;5033978;28;64368;-75
2023/03/17 02:44:34;;;;;;;;;6.00;6.00;;;;;13.18;97.32;100401.88;5010462;28;45373;-76
2023/03/17 02:46:59;;;;;;;;;11.33;9.00;;;;;13.16;97.93;100403.66;5033203;28;45607;-76
2023/03/17 02:49:26;;;;;;;;;12.00;10.00;;;;;13.16;97.71;100393.06;5012788;28;46497;-75
2023/03/17 02:51:52;;;;;;;;;6.67;5.00;;;;;13.16;98.45;100395.72;5032004;28;45483;-78
2023/03/17 02:54:17;;;;;;;;;6.33;6.00;;;;;13.16;98.00;100387.75;5030018;28;45510;-76
2023/03/17 02:56:42;;;;;;;;;11.33;8.00;;;;;13.16;98.71;100387.75;5015731;28;45342;-75
2023/03/17 02:59:08;;;;;;;;;7.33;6.00;;;;;13.16;98.97;100382.47;5024475;28;70158;-75
2023/03/17 03:01:34;;;;;;;;;8.67;8.67;;;;;13.15;99.30;100372.72;5032400;28;45301;-77
2023/03/17 03:04:00;;;;;;;;;8.67;6.33;;;;;13.18;99.09;100375.38;5027303;28;45555;-75
2023/03/17 03:06:25;;;;;;;;;10.00;8.25;;;;;13.19;99.45;100374.47;5032461;28;45432;-75
2023/03/17 03:08:51;;;;;;;;;12.00;8.33;;;;;13.21;99.55;100372.66;5029991;28;45499;-75
2023/03/17 03:11:17;;;;;;;;;8.25;8.25;;;;;13.23;99.84;100363.00;5037820;28;45427;-75
2023/03/17 03:13:42;;;;;;;;;9.00;7.00;;;;;13.25;100.00;100356.78;5030888;28;45491;-75
2023/03/17 03:16:08;;;;;;;;;12.33;7.00;;;;;13.28;100.00;100355.88;5034483;28;45570;-76
2023/03/17 03:18:33;;;;;;;;;9.00;6.33;;;;;13.28;100.00;100354.09;5037475;28;45478;-75
2023/03/17 03:20:59;;;;;;;;;7.67;7.67;;;;;13.30;100.00;100362.91;5036708;28;45488;-76
2023/03/17 03:23:25;;;;;;;;;7.67;6.00;;;;;13.30;100.00;100357.63;5016877;28;45518;-77
2023/03/17 03:25:50;;;;;;;;;7.00;7.00;;;;;13.32;100.00;100360.28;5037665;28;45478;-77
2023/03/17 03:28:15;;;;;;;;;5.33;5.33;;;;;13.32;100.00;100354.97;5034360;28;46894;-75
2023/03/17 03:30:43;;;;;;;;;9.67;9.67;;;;;13.32;100.00;100361.16;5037259;28;68981;-75
2023/03/17 03:33:09;;;;;;;;;11.67;9.67;;;;;13.32;100.00;100355.84;5038431;28;45391;-75
2023/03/17 03:35:34;;;;;;;;;9.00;7.00;;;;;13.32;100.00;100357.63;5039350;28;45494;-76
2023/03/17 03:37:59;;;;;;;;;7.00;7.00;;;;;13.30;100.00;100356.75;5033464;28;47438;-75
2023/03/17 03:40:25;;;;;;;;;11.67;9.33;;;;;13.29;100.00;100357.63;5012644;28;45335;-75
2023/03/17 03:42:51;;;;;;;;;9.00;7.00;;;;;13.28;100.00;100363.84;5035607;28;45483;-76
2023/03/17 03:45:16;;;;;;;;;14.00;8.25;;;;;13.27;100.00;100370.91;5037806;28;59798;-75
2023/03/17 03:47:42;;;;;;;;;11.00;9.00;;;;;13.25;100.00;100374.44;5027127;28;46360;-76
2023/03/17 03:50:09;;;;;;;;;8.25;7.75;;;;;13.27;100.00;100378.88;5018012;28;68737;-76
2023/03/17 03:52:34;;;;;;;;;11.25;10.25;;;;;13.25;100.00;100377.09;5038328;28;45318;-75
2023/03/17 03:55:00;;;;;;;;;10.50;9.00;;;;;13.26;100.00;100386.81;5038363;28;45484;-76
2023/03/17 03:57:25;;;;;;;;;11.25;7.50;;;;;13.23;100.00;100386.84;5034679;28;47413;-76
2023/03/17 03:59:51;;;;;;;;;10.25;10.00;;;;;13.18;100.00;100385.97;5015889;28;45376;-76
2023/03/17 04:02:17;;;;;;;;;11.67;10.00;;;;;13.16;100.00;100393.94;5032759;28;45359;-75
2023/03/17 04:04:42;;;;;;;;;15.50;8.25;;;;;13.10;100.00;100386.91;5037653;28;45510;-75
2023/03/17 04:07:08;;;;;;;;;10.67;9.33;;;;;13.03;100.00;100385.16;5032062;28;46500;-76
2023/03/17 04:09:34;;;;;;;;;10.33;6.00;;;;;12.99;99.89;100393.13;5033392;28;45511;-76
2023/03/17 04:11:59;;;;;;;;;8.67;6.00;;;;;12.94;99.43;100397.59;5028386;28;46419;-76
2023/03/17 04:14:25;;;;;;;;;10.25;7.00;;;;;12.89;99.60;100395.00;5032799;28;45515;-77
2023/03/17 04:16:50;;;;;;;;;9.25;9.00;;;;;12.82;99.47;100399.41;5032763;28;46329;-75
2023/03/17 04:19:16;;;;;;;;;10.25;7.75;;;;;12.81;99.82;100410.03;5035145;28;68074;-77
2023/03/17 04:21:42;;;;;;;;;9.00;6.00;;;;;12.79;100.00;100406.53;5035219;28;45357;-75
2023/03/17 04:24:07;;;;;;;;;10.00;10.00;;;;;12.78;100.00;100400.34;5036984;28;45333;-75
2023/03/17 04:26:33;;;;;;;;;9.00;8.50;;;;;12.77;100.00;100393.25;5035116;28;47243;-75
2023/03/17 04:28:58;;;;;;;;;9.00;9.00;;;;;12.77;100.00;100395.91;5035743;28;70075;-75
2023/03/17 04:31:24;;;;;;;;;10.75;9.25;;;;;12.77;100.00;100393.25;5033241;28;65201;-75
2023/03/17 04:33:50;;;;;;;;;10.25;8.00;;;;;12.75;100.00;100389.75;5033796;28;45376;-75
2023/03/17 04:36:21;;;;;;;;;6.75;6.75;;;;;12.76;100.00;100393.28;5034919;28;47422;-77
2023/03/17 04:38:47;;;;;;;;;8.25;6.25;;;;;12.76;100.00;100390.63;5036254;28;45509;-74
2023/03/17 04:41:14;;;;;;;;;11.00;8.00;;;;;12.73;100.00;100377.38;5035933;28;45456;-77
2023/03/17 04:43:40;;;;;;;;;9.00;7.00;;;;;12.72;100.00;100379.16;5032632;28;45309;-75
2023/03/17 04:46:05;;;;;;;;;8.50;8.50;;;;;12.71;100.00;100377.41;5036153;28;47417;-77
2023/03/17 04:48:30;;;;;;;;;9.25;6.75;;;;;12.69;100.00;100367.72;5034664;28;69803;-77
2023/03/17 04:50:56;;;;;;;;;10.75;8.00;;;;;12.70;100.00;100374.78;5036369;28;45380;-75
2023/03/17 04:53:22;;;;;;;;;11.75;9.00;;;;;12.69;100.00;100375.66;5031121;28;59272;-75
2023/03/17 04:55:47;;;;;;;;;9.25;8.50;;;;;12.70;100.00;100372.13;5035332;28;45490;-75
2023/03/17 04:58:12;;;;;;;;;9.67;8.00;;;;;12.71;100.00;100377.41;5033506;28;55301;-75
2023/03/17 05:00:38;;;;;;;;;9.25;7.00;;;;;12.74;100.00;100377.41;5037221;28;64794;-75
2023/03/17 05:03:06;;;;;;;;;8.75;8.75;;;;;12.76;100.00;100382.69;5035040;28;45358;-77
2023/03/17 05:05:32;;;;;;;;;9.00;9.00;;;;;12.78;100.00;100388.84;5010106;28;47398;-76
2023/03/17 05:07:58;;;;;;;;;6.00;6.00;;;;;12.78;100.00;100379.16;5033912;28;45189;-77
2023/03/17 05:10:23;;;;;;;;;9.25;7.00;;;;;12.82;100.00;100383.53;5035838;28;45450;-75
2023/03/17 05:12:48;;;;;;;;;9.50;6.50;;;;;12.85;100.00;100380.00;5034671;28;58925;-75
2023/03/17 05:15:14;;;;;;;;;8.25;8.25;;;;;12.88;100.00;100379.06;5033606;28;45572;-76
2023/03/17 05:17:40;;;;;;;;;7.75;6.25;;;;;12.87;100.00;100382.63;5035545;28;45463;-75
2023/03/17 05:20:07;;;;;;;;;6.00;5.75;;;;;12.87;100.00;100393.22;5032515;28;64892;-75
2023/03/17 05:22:32;;;;;;;;;6.00;6.00;;;;;12.87;100.00;100382.63;5035494;28;45609;-76
2023/03/17 05:24:58;;;;;;;;;10.00;6.00;;;;;12.90;100.00;100404.69;5030268;28;46614;-76
2023/03/17 05:27:23;;;;;;;;;8.50;6.50;;;;;12.90;100.00;100383.50;5031209;28;45361;-76
2023/03/17 05:29:48;;;;;;;;;9.00;7.00;;;;;12.94;100.00;100381.69;4992459;28;1139331;-76
2023/03/17 05:32:14;;;;;;;;;3.00;3.00;;;;;12.95;100.00;100386.13;5032857;28;45451;-76
2023/03/17 05:34:39;;;;;;;;;6.00;6.00;;;;;12.98;100.00;100378.13;5034101;28;45614;-76
2023/03/17 05:37:04;;;;;;;;;5.50;5.50;;;;;13.01;100.00;100378.13;5028745;28;69844;-75
2023/03/17 05:39:30;;;;;;;;;6.00;6.00;;;;;13.02;100.00;100374.59;5030822;28;45566;-76
2023/03/17 05:41:56;;;;;;;;;4.00;4.00;;;;;13.03;100.00;100381.63;5031590;28;45462;-76
2023/03/17 05:44:21;;;;;;;;;7.00;5.33;;;;;13.04;100.00;100378.09;5030815;28;46289;-76
2023/03/17 05:46:47;;;;;;;;;9.25;5.75;;;;;13.04;100.00;100375.44;5034462;28;65754;-77
2023/03/17 05:49:12;;;;;;;;;7.00;4.75;;;;;13.05;100.00;100367.50;5034563;28;49295;-78
2023/03/17 05:51:37;;;;;;;;;8.33;6.00;;;;;13.07;100.00;100389.56;5034241;28;45494;-77
2023/03/17 05:54:03;;;;;;;;;6.75;6.00;;;;;13.08;100.00;100375.41;5034061;28;70508;-78
2023/03/17 05:56:32;;;;;;;;;5.00;4.67;;;;;13.13;100.00;100370.09;5032408;28;45428;-85
2023/03/17 05:59:00;;;;;;;;;3.67;3.67;;;;;13.17;100.00;100384.22;5035602;28;45652;-78
2023/03/17 06:01:26;;;;;;;;;9.00;6.67;;;;;13.20;100.00;100390.34;5039398;28;45411;-78
2023/03/17 06:03:51;;;;;;;;;6.75;5.00;;;;;13.22;100.00;100388.63;5032416;28;46959;-78
2023/03/17 06:06:17;;;;;;;;;4.00;4.00;;;;;13.26;100.00;100397.41;5035819;28;45329;-84
2023/03/17 06:08:43;;;;;;;;;5.00;5.00;;;;;13.25;100.00;100374.44;5019216;28;45289;-83
2023/03/17 06:11:08;;;;;;;;;5.00;4.00;;;;;13.25;100.00;100374.44;5025939;28;45527;-82
2023/03/17 06:13:34;;;;;;;;;8.67;6.67;;;;;13.27;100.00;100375.34;5034720;28;46214;-84
2023/03/17 06:15:59;;;;;;;;;8.33;5.67;;;;;13.29;100.00;100385.03;5034971;28;53677;-82
2023/03/17 06:18:24;;;;;;;;;7.67;4.67;;;;;13.27;100.00;100378.88;5035439;28;45935;-80
2023/03/17 06:20:50;;;;;;;;;6.00;5.00;;;;;13.26;100.00;100385.06;5030503;28;62267;-82
2023/03/17 06:23:16;;;;;;;;;5.00;5.00;;;;;13.25;100.00;100382.41;5034781;28;46428;-80
2023/03/17 06:25:41;;;;;;;;;8.67;6.00;;;;;13.23;100.00;100387.72;5032197;28;45472;-82
2023/03/17 06:28:06;;;;;;;;;7.00;6.00;;;;;13.25;100.00;100398.31;5029401;28;45352;-85
2023/03/17 06:30:33;;;;;;;;;5.33;5.33;;;;;13.28;100.00;100398.31;5033574;28;58679;-81
2023/03/17 06:32:59;;;;;;;;;3.33;3.00;;;;;13.32;100.00;100392.97;5034981;28;47411;-81
2023/03/17 06:35:25;;;;;;;;;7.00;4.00;;;;;13.38;100.00;100385.88;5032532;28;45440;-85
2023/03/17 06:37:50;;;;;;;;;5.33;5.00;;;;;13.43;100.00;100392.03;5034760;28;45430;-83
2023/03/17 06:40:16;;;;;;;;;6.00;5.00;;;;;13.48;100.00;100388.44;5027968;28;55349;-78
2023/03/17 06:42:41;;;;;;;;;7.00;5.67;;;;;13.51;100.00;100383.09;5031581;28;47517;-78
2023/03/17 06:45:08;;;;;;;;;8.67;6.00;;;;;13.56;100.00;100372.44;5033644;28;45434;-79
2023/03/17 06:47:36;;;;;;;;;6.33;5.00;;;;;13.59;100.00;100375.09;5039585;28;45683;-77
2023/03/17 06:50:01;;;;;;;;;11.00;5.00;;;;;13.63;100.00;100380.34;5036924;28;45466;-78
2023/03/17 06:52:27;;;;;;;;;8.33;5.00;;;;;13.67;100.00;100382.97;5036854;28;47257;-77
2023/03/17 06:54:52;;;;;;;;;4.33;4.33;;;;;13.71;100.00;100395.31;5014541;28;45709;-77
2023/03/17 06:57:17;;;;;;;;;4.00;4.00;;;;;13.76;100.00;100409.41;5035802;28;57589;-77
2023/03/17 06:59:44;;;;;;;;;7.67;5.67;;;;;13.78;100.00;100405.84;5033250;28;45494;-77
2023/03/17 07:02:10;;;;;;;;;5.33;5.00;;;;;13.82;100.00;100404.94;5037845;28;46786;-76
2023/03/17 07:04:37;;;;;;;;;5.00;5.00;;;;;13.85;100.00;100394.31;5034727;28;45487;-78
2023/03/17 07:07:04;;;;;;;;;6.67;5.00;;;;;13.91;100.00;100397.78;5038330;28;45522;-76
2023/03/17 07:09:31;;;;;;;;;6.00;6.00;;;;;13.95;100.00;100402.16;5032692;28;45508;-78
2023/03/17 07:11:57;;;;;;;;;7.00;4.33;;;;;14.00;100.00;100398.56;5037306;28;46723;-77
2023/03/17 07:14:22;;;;;;;;;6.67;6.67;;;;;14.05;100.00;100385.25;5038581;28;45419;-77
2023/03/17 07:16:48;;;;;;;;;5.00;5.00;;;;;14.12;100.00;100386.97;5037811;28;46845;-76
2023/03/17 07:19:14;;;;;;;;;5.00;4.67;;;;;14.16;100.00;100384.22;5031728;28;45336;-77
2023/03/17 07:21:39;;;;;;;;;8.00;5.33;;;;;14.25;100.00;100395.66;5035409;28;47690;-78
2023/03/17 07:24:05;;;;;;;;;6.00;6.00;;;;;14.33;100.00;100402.66;5034043;28;45286;-77
2023/03/17 07:26:30;;;;;;;;;11.00;6.67;;;;;14.36;100.00;100413.22;5035528;28;45450;-77
2023/03/17 07:28:56;;;;;;;;;10.33;7.00;;;;;14.42;100.00;100412.28;5018196;28;45554;-77
2023/03/17 07:31:22;;;;;;;;;5.00;5.00;;;;;14.46;100.00;100413.13;5034797;28;45888;-76
2023/03/17 07:33:47;;;;;;;;;4.00;4.00;;;;;14.49;100.00;100422.00;5036786;28;45536;-76
2023/03/17 07:36:14;;;;;;;;;5.33;5.33;;;;;14.54;100.00;100422.81;5032381;28;61919;-76
2023/03/17 07:38:40;;;;;;;;;6.00;6.00;;;;;14.59;100.00;100418.28;5038475;28;45506;-77
2023/03/17 07:41:08;;;;;;;;;6.67;4.67;;;;;14.63;100.00;100417.38;5032574;28;47272;-78
2023/03/17 07:43:34;;;;;;;;;6.00;4.33;;;;;14.67;100.00;100407.59;5037942;28;45514;-76
2023/03/17 07:45:59;;;;;;;;;9.00;5.00;;;;;14.73;99.31;100417.25;5037429;28;45519;-76
2023/03/17 07:48:24;;;;;;;;;5.00;5.00;;;;;14.75;99.55;100416.31;5037983;28;55657;-78
2023/03/17 07:50:50;;;;;;;;;4.00;4.00;;;;;14.78;99.56;100423.41;5036988;28;46588;-77
2023/03/17 07:53:15;;;;;;;;;6.67;5.00;;;;;14.77;99.11;100413.66;5027443;28;45508;-76
2023/03/17 07:55:41;;;;;;;;;5.33;5.33;;;;;14.80;99.27;100418.94;5034863;28;45430;-77
2023/03/17 07:58:08;;;;;;;;;5.00;4.00;;;;;14.82;99.14;100426.00;5037883;28;45388;-77
2023/03/17 08:00:33;;;;;;;;;5.67;5.00;;;;;14.83;98.77;100433.06;5037887;28;47432;-78
2023/03/17 08:02:59;;;;;;;;;12.33;5.67;;;;;14.83;98.29;100424.22;5034751;28;45254;-77
2023/03/17 08:05:24;;;;;;;;;6.33;6.33;;;;;14.87;97.98;100436.56;5014648;28;45486;-77
2023/03/17 08:07:49;;;;;;;;;4.33;4.33;;;;;14.89;97.88;100440.09;5029543;28;45630;-77
2023/03/17 08:10:15;;;;;;;;;6.67;5.00;;;;;14.88;98.00;100443.66;5035922;28;46677;-77
2023/03/17 08:12:41;;;;;;;;;7.00;5.67;;;;;14.87;97.50;100442.78;5035557;28;45241;-77
2023/03/17 08:15:08;;;;;;;;;10.00;4.00;;;;;14.89;97.14;100445.41;5036869;28;45439;-76
2023/03/17 08:17:35;;;;;;;;;6.00;5.00;;;;;14.89;97.29;100443.63;5016546;28;45680;-77
2023/03/17 08:20:00;;;;;;;;;4.33;4.33;;;;;14.90;96.79;100440.06;5036379;28;46208;-75
2023/03/17 08:22:26;;;;;;;;;7.67;6.67;;;;;14.92;96.46;100442.72;5036130;28;46345;-76
2023/03/17 08:24:52;;;;;;;;;7.67;5.00;;;;;14.94;96.25;100438.25;5037760;28;45479;-77
2023/03/17 08:27:19;;;;;;;;;6.00;4.00;;;;;15.00;96.81;100440.81;5031097;28;45375;-77
2023/03/17 08:29:44;;;;;;;;;6.00;5.00;;;;;15.05;96.49;100441.63;5037396;28;46637;-76
2023/03/17 08:32:10;;;;;;;;;6.00;4.67;;;;;15.11;96.44;100436.22;5035018;28;67229;-76
2023/03/17 08:34:36;;;;;;;;;4.33;3.00;;;;;15.18;95.37;100439.72;5030034;28;45219;-78
2023/03/17 08:37:01;;;;;;;;;7.00;7.00;;;;;15.23;95.18;100419.22;5032582;28;45455;-76
2023/03/17 08:39:27;;;;;;;;;5.00;5.00;;;;;15.29;94.77;100427.13;5011076;28;45567;-77
2023/03/17 08:41:53;;;;;;;;;6.00;3.67;;;;;15.34;93.92;100433.25;5015124;28;45903;-77
2023/03/17 08:44:19;;;;;;;;;4.00;3.00;;;;;15.39;94.40;100422.53;5030316;28;64080;-78
2023/03/17 08:46:46;;;;;;;;;5.00;5.00;;;;;15.46;93.96;100416.22;5036476;28;45332;-77
2023/03/17 08:49:11;;;;;;;;;5.67;5.00;;;;;15.51;93.33;100413.50;5033518;28;46750;-77
2023/03/17 08:51:38;;;;;;;;;6.33;4.00;;;;;15.56;93.27;100411.66;5014448;28;45251;-75
2023/03/17 08:54:04;;;;;;;;;5.67;4.00;;;;;15.60;93.40;100416.88;5019089;28;45283;-77
2023/03/17 08:56:30;;;;;;;;;6.00;6.00;;;;;15.64;93.10;100405.31;5035974;28;45312;-77
2023/03/17 08:58:55;;;;;;;;;4.33;4.00;;;;;15.65;92.21;100396.41;5035715;28;74694;-78
2023/03/17 09:01:23;;;;;;;;;6.00;6.00;;;;;15.69;91.76;100410.56;5034103;28;45286;-76
2023/03/17 09:03:49;;;;;;;;;3.00;3.00;;;;;15.75;91.84;100409.56;5029460;28;45447;-76
2023/03/17 09:06:15;;;;;;;;;4.00;4.00;;;;;15.77;90.87;100402.47;5031327;28;45305;-75
2023/03/17 09:08:43;;;;;;;;;8.00;6.33;;;;;15.81;90.64;100397.03;5035022;28;46563;-77
2023/03/17 09:11:18;;;;;;;;;5.67;5.67;;;;;15.89;90.47;100411.09;5013144;28;45404;-76
2023/03/17 09:13:45;;;;;;;;;12.00;6.67;;;;;15.97;90.61;100419.81;5032108;28;45352;-76
2023/03/17 09:16:11;;;;;;;;;6.00;3.67;;;;;16.07;90.30;100404.56;5037297;28;45481;-75
2023/03/17 09:18:36;;;;;;;;;6.00;4.33;;;;;16.17;90.04;100395.50;5035045;28;46825;-77
2023/03/17 09:21:02;;;;;;;;;6.00;5.00;;;;;16.30;90.29;100393.50;5034624;28;45340;-77
2023/03/17 09:23:28;;;;;;;;;4.33;3.00;;;;;16.40;89.79;100392.38;5033489;28;45468;-75
2023/03/17 09:25:53;;;;;;;;;7.00;5.00;;;;;16.51;89.75;100400.16;5033555;28;45569;-75
2023/03/17 09:28:19;;;;;;;;;4.00;4.00;;;;;16.64;89.55;100395.47;5033514;28;71734;-76
2023/03/17 09:30:44;;;;;;;;;5.00;5.00;;;;;16.73;88.96;100398.84;5030884;28;69805;-76
2023/03/17 09:33:11;;;;;;;;;6.00;4.00;;;;;16.83;87.58;100390.63;5018529;28;45587;-75
2023/03/17 09:35:37;;;;;;;;;5.00;4.00;;;;;16.91;87.36;100397.56;5012089;28;45586;-75
2023/03/17 09:38:02;;;;;;;;;6.00;4.00;;;;;16.98;87.25;100409.84;5026495;28;47542;-76
2023/03/17 09:40:38;;;;;;;;;3.33;3.33;;;;;17.05;86.43;100396.41;5028726;28;45305;-76
2023/03/17 09:43:18;;;;;;;;;6.00;4.00;;;;;17.11;86.01;100394.47;5034350;28;45755;-76
2023/03/17 09:45:44;;;;;;;;;4.33;4.33;;;;;17.15;85.84;100388.16;5031520;28;45720;-76
2023/03/17 09:48:24;;;;;;;;;5.67;4.00;;;;;17.27;85.89;100390.53;5035103;28;47398;-76
2023/03/17 09:51:06;;;;;;;;;7.67;7.00;;;;;17.39;85.67;100388.47;5018237;28;45515;-76
2023/03/17 09:53:45;;;;;;;;;8.00;6.00;;;;;17.49;85.37;100392.69;5017734;28;45337;-75
2023/03/17 09:56:12;;;;;;;;;5.67;4.00;;;;;17.60;84.87;100379.06;5019022;28;45441;-77
2023/03/17 09:58:41;;;;;;;;;5.00;4.33;;;;;17.68;84.49;100383.28;5032914;28;47784;-77
2023/03/17 10:01:08;;;;;;;;;5.67;3.00;;;;;17.77;84.75;100374.19;5033877;28;45304;-76
2023/03/17 10:03:34;;;;;;;;;7.00;3.00;;;;;17.86;83.42;100373.09;5016802;28;45337;-77
2023/03/17 10:06:22;;;;;;;;;2.00;2.00;;;;;17.93;82.20;100372.00;5034643;28;45632;-76
2023/03/17 10:09:04;;;;;;;;;2.33;2.33;;;;;17.98;81.12;100376.31;5029258;28;47326;-76
2023/03/17 10:11:39;;;;;;;;;2.00;2.00;;;;;18.04;80.21;100369.91;5018045;28;45663;-76
2023/03/17 10:14:29;;;;;;;;;3.33;2.00;;;;;18.13;79.70;100372.34;5034825;28;45439;-77
2023/03/17 10:17:04;;;;;;;;;6.67;3.00;;;;;18.21;78.67;100378.34;5036294;28;45466;-75
2023/03/17 10:19:43;;;;;;;;;2.00;2.00;;;;;18.26;77.50;100379.09;5016635;28;47882;-75
2023/03/17 10:22:36;;;;;;;;;1.00;1.00;;;;;18.32;77.07;100383.38;5014105;28;45547;-77
2023/03/17 10:25:22;;;;;;;;;2.33;1.00;;;;;18.37;76.38;100391.28;5018055;28;45309;-79
2023/03/17 10:28:01;;;;;;;;;2.00;2.00;;;;;18.40;76.29;100396.56;5036225;28;45363;-75
2023/03/17 10:30:26;;;;;;;;;2.00;2.00;;;;;18.44;75.58;100401.78;5017600;28;47517;-75
2023/03/17 10:32:56;;;;;;;;;2.67;1.00;;;;;18.50;75.91;100398.94;5018877;28;45483;-76
2023/03/17 10:35:22;;;;;;;;;1.00;1.00;;;;;18.57;75.80;100396.94;5018180;28;45527;-76
2023/03/17 10:37:48;;;;;;;;;2.00;2.00;;;;;18.62;76.35;100395.00;5034865;28;45478;-76
2023/03/17 10:40:21;;;;;;;;;1.00;1.00;;;;;18.69;75.05;100390.38;5029903;28;69811;-76
2023/03/17 10:42:48;;;;;;;;;2.00;1.00;;;;;18.72;75.65;100393.88;5034625;28;45615;-75
2023/03/17 10:45:26;;;;;;;;;1.00;1.00;;;;;18.78;74.94;100388.31;5014161;28;45274;-76
2023/03/17 10:47:55;;;;;;;;;1.33;1.33;;;;;18.79;73.30;100383.84;5031914;28;45531;-77
2023/03/17 10:50:30;;;;;;;;;2.33;1.00;;;;;18.81;72.48;100390.91;5034880;28;46345;-76
2023/03/17 10:53:07;;;;;;;;;1.00;1.00;;;;;18.83;72.65;100388.19;5027046;28;45562;-77
2023/03/17 10:55:43;;;;;;;;;2.67;1.33;;;;;18.87;72.80;100392.53;5026129;28;46256;-75
2023/03/17 10:58:08;;;;;;;;;2.00;0.33;;;;;18.89;72.35;100390.69;5031744;28;45290;-77
2023/03/17 11:00:36;;;;;;;;;2.67;1.33;;;;;18.90;71.76;100381.72;5033292;28;46309;-76
2023/03/17 11:03:15;;;;;;;;;2.00;2.00;;;;;18.90;72.09;100383.53;5030429;28;45551;-77
2023/03/17 11:05:53;;;;;;;;;3.00;1.67;;;;;18.93;71.98;100402.16;5013879;28;45464;-79
2023/03/17 11:08:19;;;;;;;;;1.33;1.33;;;;;18.94;71.73;100401.25;5032759;28;45570;-79
2023/03/17 11:10:45;;;;;;;;;1.00;1.00;;;;;18.92;72.14;100406.66;5034425;28;46231;-77
2023/03/17 11:13:17;;;;;;;;;0.67;0.33;;;;;18.91;71.73;100409.34;5035406;28;45306;-76
2023/03/17 11:15:48;;;;;;;;;1.33;1.33;;;;;18.91;71.85;100393.28;5035593;28;45569;-76
2023/03/17 11:18:47;;;;;;;;;3.00;1.33;;;;;18.93;72.14;100388.78;5014878;28;45538;-76
2023/03/17 11:21:22;;;;;;;;;2.00;2.00;;;;;18.93;72.35;100384.31;5006699;28;46650;-77
2023/03/17 11:24:07;;;;;;;;;1.00;1.00;;;;;19.02;72.81;100383.16;5033883;28;45657;-77